sensor_id;sensor_type;location;lat;lon;timestamp;P1;durP1;ratioP1;P2;durP2;ratioP2
34565;SDS011;20803;42.676;26.348;2022-11-20T00:00:29;16.70;;;6.50;;
34565;SDS011;20803;42.676;26.348;2022-11-20T00:02:54;16.83;;;7.53;;
34565;SDS011;20803;42.676;26.348;2022-11-20T00:05:19;10.37;;;5.30;;
34565;SDS011;20803;42.676;26.348;2022-11-20T00:07:45;17.77;;;6.90;;
34565;SDS011;20803;42.676;26.348;2022-11-20T00:10:11;9.27;;;5.43;;
34565;SDS011;20803;42.676;26.348;2022-11-20T00:12:36;17.20;;;6.60;;
34565;SDS011;20803;42.676;26.348;2022-11-20T00:15:02;23.70;;;6.87;;
34565;SDS011;20803;42.676;26.348;2022-11-20T00:17:28;14.47;;;6.57;;
34565;SDS011;20803;42.676;26.348;2022-11-20T00:19:54;22.00;;;7.50;;
34565;SDS011;20803;42.676;26.348;2022-11-20T00:22:19;19.00;;;6.67;;
34565;SDS011;20803;42.676;26.348;2022-11-20T00:24:44;18.53;;;6.63;;
34565;SDS011;20803;42.676;26.348;2022-11-20T00:27:10;18.23;;;6.50;;
34565;SDS011;20803;42.676;26.348;2022-11-20T00:29:35;25.37;;;7.47;;
34565;SDS011;20803;42.676;26.348;2022-11-20T00:32:01;20.43;;;6.50;;
34565;SDS011;20803;42.676;26.348;2022-11-20T00:34:26;14.37;;;6.10;;
34565;SDS011;20803;42.676;26.348;2022-11-20T00:36:51;17.60;;;6.03;;
34565;SDS011;20803;42.676;26.348;2022-11-20T00:39:17;21.67;;;7.00;;
34565;SDS011;20803;42.676;26.348;2022-11-20T00:41:42;15.87;;;6.37;;
34565;SDS011;20803;42.676;26.348;2022-11-20T00:44:07;14.43;;;6.67;;
34565;SDS011;20803;42.676;26.348;2022-11-20T00:46:33;17.20;;;7.10;;
34565;SDS011;20803;42.676;26.348;2022-11-20T00:48:59;12.10;;;6.23;;
34565;SDS011;20803;42.676;26.348;2022-11-20T00:51:25;15.57;;;6.90;;
34565;SDS011;20803;42.676;26.348;2022-11-20T00:53:51;14.93;;;6.23;;
34565;SDS011;20803;42.676;26.348;2022-11-20T00:56:19;16.33;;;5.47;;
34565;SDS011;20803;42.676;26.348;2022-11-20T00:58:45;15.17;;;6.10;;
34565;SDS011;20803;42.676;26.348;2022-11-20T01:01:13;15.60;;;6.10;;
34565;SDS011;20803;42.676;26.348;2022-11-20T01:03:44;15.07;;;6.00;;
34565;SDS011;20803;42.676;26.348;2022-11-20T01:08:38;20.40;;;6.97;;
34565;SDS011;20803;42.676;26.348;2022-11-20T01:11:05;15.97;;;6.10;;
34565;SDS011;20803;42.676;26.348;2022-11-20T01:13:32;18.97;;;6.83;;
34565;SDS011;20803;42.676;26.348;2022-11-20T01:18:30;16.67;;;6.03;;
34565;SDS011;20803;42.676;26.348;2022-11-20T01:20:55;22.27;;;7.00;;
34565;SDS011;20803;42.676;26.348;2022-11-20T01:23:25;19.03;;;6.87;;
34565;SDS011;20803;42.676;26.348;2022-11-20T01:25:51;14.43;;;6.00;;
34565;SDS011;20803;42.676;26.348;2022-11-20T01:28:16;12.43;;;6.30;;
34565;SDS011;20803;42.676;26.348;2022-11-20T01:30:42;15.63;;;5.67;;
34565;SDS011;20803;42.676;26.348;2022-11-20T01:33:07;20.57;;;5.90;;
34565;SDS011;20803;42.676;26.348;2022-11-20T01:35:33;16.53;;;6.17;;
34565;SDS011;20803;42.676;26.348;2022-11-20T01:37:58;15.70;;;5.87;;
34565;SDS011;20803;42.676;26.348;2022-11-20T01:40:23;27.23;;;5.47;;
34565;SDS011;20803;42.676;26.348;2022-11-20T01:42:52;16.83;;;5.87;;
34565;SDS011;20803;42.676;26.348;2022-11-20T01:48:42;17.83;;;5.30;;
34565;SDS011;20803;42.676;26.348;2022-11-20T01:51:33;13.40;;;4.93;;
34565;SDS011;20803;42.676;26.348;2022-11-20T01:54:00;8.40;;;3.90;;
34565;SDS011;20803;42.676;26.348;2022-11-20T01:56:28;8.57;;;4.57;;
34565;SDS011;20803;42.676;26.348;2022-11-20T01:58:59;16.33;;;4.63;;
34565;SDS011;20803;42.676;26.348;2022-11-20T02:01:28;12.77;;;4.33;;
34565;SDS011;20803;42.676;26.348;2022-11-20T02:03:53;11.27;;;5.00;;
34565;SDS011;20803;42.676;26.348;2022-11-20T02:06:22;12.47;;;4.57;;
34565;SDS011;20803;42.676;26.348;2022-11-20T02:08:50;10.60;;;4.70;;
34565;SDS011;20803;42.676;26.348;2022-11-20T02:11:16;11.17;;;4.30;;
34565;SDS011;20803;42.676;26.348;2022-11-20T02:13:41;10.60;;;4.60;;
34565;SDS011;20803;42.676;26.348;2022-11-20T02:16:11;12.53;;;5.23;;
34565;SDS011;20803;42.676;26.348;2022-11-20T02:18:40;13.07;;;5.00;;
34565;SDS011;20803;42.676;26.348;2022-11-20T02:21:07;13.87;;;4.80;;
34565;SDS011;20803;42.676;26.348;2022-11-20T02:26:38;11.77;;;5.00;;
34565;SDS011;20803;42.676;26.348;2022-11-20T02:29:07;18.50;;;4.93;;
34565;SDS011;20803;42.676;26.348;2022-11-20T02:31:37;18.90;;;6.07;;
34565;SDS011;20803;42.676;26.348;2022-11-20T02:34:05;22.50;;;5.37;;
34565;SDS011;20803;42.676;26.348;2022-11-20T02:36:30;17.47;;;5.40;;
34565;SDS011;20803;42.676;26.348;2022-11-20T02:38:58;12.13;;;4.83;;
34565;SDS011;20803;42.676;26.348;2022-11-20T02:41:30;11.33;;;4.37;;
34565;SDS011;20803;42.676;26.348;2022-11-20T02:43:58;16.93;;;4.67;;
34565;SDS011;20803;42.676;26.348;2022-11-20T02:46:23;16.87;;;4.70;;
34565;SDS011;20803;42.676;26.348;2022-11-20T02:48:48;11.00;;;4.17;;
34565;SDS011;20803;42.676;26.348;2022-11-20T02:51:14;14.47;;;4.03;;
34565;SDS011;20803;42.676;26.348;2022-11-20T02:53:39;15.93;;;4.90;;
34565;SDS011;20803;42.676;26.348;2022-11-20T02:56:05;13.33;;;4.37;;
34565;SDS011;20803;42.676;26.348;2022-11-20T02:58:31;14.17;;;4.10;;
34565;SDS011;20803;42.676;26.348;2022-11-20T03:00:56;10.23;;;3.93;;
34565;SDS011;20803;42.676;26.348;2022-11-20T03:03:22;10.50;;;4.87;;
34565;SDS011;20803;42.676;26.348;2022-11-20T03:05:47;12.60;;;4.50;;
34565;SDS011;20803;42.676;26.348;2022-11-20T03:08:12;9.80;;;4.40;;
34565;SDS011;20803;42.676;26.348;2022-11-20T03:10:38;18.07;;;4.17;;
34565;SDS011;20803;42.676;26.348;2022-11-20T03:13:03;16.27;;;3.80;;
34565;SDS011;20803;42.676;26.348;2022-11-20T03:15:29;11.23;;;3.57;;
34565;SDS011;20803;42.676;26.348;2022-11-20T03:17:54;8.20;;;4.20;;
34565;SDS011;20803;42.676;26.348;2022-11-20T03:20:20;8.03;;;3.93;;
34565;SDS011;20803;42.676;26.348;2022-11-20T03:22:46;7.97;;;3.97;;
34565;SDS011;20803;42.676;26.348;2022-11-20T03:25:11;11.00;;;4.30;;
34565;SDS011;20803;42.676;26.348;2022-11-20T03:27:37;7.53;;;3.57;;
34565;SDS011;20803;42.676;26.348;2022-11-20T03:30:02;10.63;;;3.80;;
34565;SDS011;20803;42.676;26.348;2022-11-20T03:32:28;8.87;;;3.73;;
34565;SDS011;20803;42.676;26.348;2022-11-20T03:34:54;7.53;;;3.93;;
34565;SDS011;20803;42.676;26.348;2022-11-20T03:37:19;15.77;;;4.20;;
34565;SDS011;20803;42.676;26.348;2022-11-20T03:39:45;9.13;;;3.70;;
34565;SDS011;20803;42.676;26.348;2022-11-20T03:42:10;15.40;;;4.50;;
34565;SDS011;20803;42.676;26.348;2022-11-20T03:44:55;8.27;;;4.03;;
34565;SDS011;20803;42.676;26.348;2022-11-20T03:47:21;9.63;;;3.70;;
34565;SDS011;20803;42.676;26.348;2022-11-20T03:49:46;17.23;;;4.20;;
34565;SDS011;20803;42.676;26.348;2022-11-20T03:52:12;12.50;;;4.23;;
34565;SDS011;20803;42.676;26.348;2022-11-20T03:54:37;9.90;;;3.63;;
34565;SDS011;20803;42.676;26.348;2022-11-20T03:57:02;10.00;;;3.77;;
34565;SDS011;20803;42.676;26.348;2022-11-20T03:59:28;10.87;;;3.87;;
34565;SDS011;20803;42.676;26.348;2022-11-20T04:01:53;13.13;;;4.07;;
34565;SDS011;20803;42.676;26.348;2022-11-20T04:04:18;13.07;;;3.90;;
34565;SDS011;20803;42.676;26.348;2022-11-20T04:06:44;12.67;;;4.20;;
34565;SDS011;20803;42.676;26.348;2022-11-20T04:09:09;13.30;;;4.27;;
34565;SDS011;20803;42.676;26.348;2022-11-20T04:11:36;12.77;;;3.67;;
34565;SDS011;20803;42.676;26.348;2022-11-20T04:14:05;7.07;;;3.60;;
34565;SDS011;20803;42.676;26.348;2022-11-20T04:16:32;10.70;;;3.47;;
34565;SDS011;20803;42.676;26.348;2022-11-20T04:19:00;6.97;;;3.47;;
34565;SDS011;20803;42.676;26.348;2022-11-20T04:21:27;9.90;;;3.53;;
34565;SDS011;20803;42.676;26.348;2022-11-20T04:23:53;10.63;;;3.47;;
34565;SDS011;20803;42.676;26.348;2022-11-20T04:26:19;12.93;;;4.40;;
34565;SDS011;20803;42.676;26.348;2022-11-20T04:28:46;9.60;;;3.90;;
34565;SDS011;20803;42.676;26.348;2022-11-20T04:31:12;11.50;;;3.47;;
34565;SDS011;20803;42.676;26.348;2022-11-20T04:33:39;12.93;;;3.70;;
34565;SDS011;20803;42.676;26.348;2022-11-20T04:38:41;9.90;;;3.73;;
34565;SDS011;20803;42.676;26.348;2022-11-20T04:41:11;13.10;;;4.20;;
34565;SDS011;20803;42.676;26.348;2022-11-20T04:43:40;13.90;;;3.87;;
34565;SDS011;20803;42.676;26.348;2022-11-20T04:46:05;8.97;;;3.27;;
34565;SDS011;20803;42.676;26.348;2022-11-20T04:48:31;12.10;;;4.23;;
34565;SDS011;20803;42.676;26.348;2022-11-20T04:50:56;15.50;;;4.37;;
34565;SDS011;20803;42.676;26.348;2022-11-20T04:53:22;11.97;;;4.30;;
34565;SDS011;20803;42.676;26.348;2022-11-20T04:55:48;13.20;;;4.13;;
34565;SDS011;20803;42.676;26.348;2022-11-20T04:58:14;10.17;;;4.60;;
34565;SDS011;20803;42.676;26.348;2022-11-20T05:00:41;14.73;;;4.33;;
34565;SDS011;20803;42.676;26.348;2022-11-20T05:03:07;14.17;;;4.67;;
34565;SDS011;20803;42.676;26.348;2022-11-20T05:05:35;11.53;;;4.17;;
34565;SDS011;20803;42.676;26.348;2022-11-20T05:08:01;11.17;;;4.13;;
34565;SDS011;20803;42.676;26.348;2022-11-20T05:10:27;10.73;;;3.77;;
34565;SDS011;20803;42.676;26.348;2022-11-20T05:12:52;7.93;;;3.60;;
34565;SDS011;20803;42.676;26.348;2022-11-20T05:15:18;9.03;;;4.07;;
34565;SDS011;20803;42.676;26.348;2022-11-20T05:17:47;14.23;;;3.67;;
34565;SDS011;20803;42.676;26.348;2022-11-20T05:20:14;13.27;;;4.10;;
34565;SDS011;20803;42.676;26.348;2022-11-20T05:22:39;11.20;;;4.33;;
34565;SDS011;20803;42.676;26.348;2022-11-20T05:25:05;14.67;;;4.53;;
34565;SDS011;20803;42.676;26.348;2022-11-20T05:27:30;14.30;;;4.57;;
34565;SDS011;20803;42.676;26.348;2022-11-20T05:29:55;13.93;;;3.93;;
34565;SDS011;20803;42.676;26.348;2022-11-20T05:32:21;7.57;;;3.13;;
34565;SDS011;20803;42.676;26.348;2022-11-20T05:34:50;12.80;;;4.87;;
34565;SDS011;20803;42.676;26.348;2022-11-20T05:37:15;13.90;;;4.20;;
34565;SDS011;20803;42.676;26.348;2022-11-20T05:39:41;9.77;;;4.10;;
34565;SDS011;20803;42.676;26.348;2022-11-20T05:42:06;15.27;;;4.20;;
34565;SDS011;20803;42.676;26.348;2022-11-20T05:44:50;14.67;;;9.33;;
34565;SDS011;20803;42.676;26.348;2022-11-20T05:47:15;14.27;;;4.40;;
34565;SDS011;20803;42.676;26.348;2022-11-20T05:49:41;15.00;;;5.17;;
34565;SDS011;20803;42.676;26.348;2022-11-20T05:52:06;13.20;;;4.67;;
34565;SDS011;20803;42.676;26.348;2022-11-20T05:54:32;16.27;;;4.53;;
34565;SDS011;20803;42.676;26.348;2022-11-20T05:56:57;11.97;;;4.60;;
34565;SDS011;20803;42.676;26.348;2022-11-20T05:59:22;12.80;;;3.47;;
34565;SDS011;20803;42.676;26.348;2022-11-20T06:01:48;12.47;;;4.50;;
34565;SDS011;20803;42.676;26.348;2022-11-20T06:04:13;15.77;;;5.73;;
34565;SDS011;20803;42.676;26.348;2022-11-20T06:06:38;11.07;;;4.30;;
34565;SDS011;20803;42.676;26.348;2022-11-20T06:09:04;13.53;;;4.87;;
34565;SDS011;20803;42.676;26.348;2022-11-20T06:11:29;13.63;;;4.37;;
34565;SDS011;20803;42.676;26.348;2022-11-20T06:13:55;18.50;;;5.03;;
34565;SDS011;20803;42.676;26.348;2022-11-20T06:16:20;12.23;;;4.93;;
34565;SDS011;20803;42.676;26.348;2022-11-20T06:18:47;11.20;;;5.17;;
34565;SDS011;20803;42.676;26.348;2022-11-20T06:21:13;20.27;;;6.07;;
34565;SDS011;20803;42.676;26.348;2022-11-20T06:23:41;17.13;;;7.10;;
34565;SDS011;20803;42.676;26.348;2022-11-20T06:26:08;12.70;;;6.37;;
34565;SDS011;20803;42.676;26.348;2022-11-20T06:28:35;15.47;;;6.00;;
34565;SDS011;20803;42.676;26.348;2022-11-20T06:31:00;12.87;;;5.80;;
34565;SDS011;20803;42.676;26.348;2022-11-20T06:33:26;15.60;;;6.13;;
34565;SDS011;20803;42.676;26.348;2022-11-20T06:35:52;15.27;;;6.87;;
34565;SDS011;20803;42.676;26.348;2022-11-20T06:38:20;14.83;;;4.70;;
34565;SDS011;20803;42.676;26.348;2022-11-20T06:40:46;12.23;;;4.90;;
34565;SDS011;20803;42.676;26.348;2022-11-20T06:43:11;12.40;;;5.33;;
34565;SDS011;20803;42.676;26.348;2022-11-20T06:45:37;13.40;;;5.93;;
34565;SDS011;20803;42.676;26.348;2022-11-20T06:48:02;19.70;;;7.20;;
34565;SDS011;20803;42.676;26.348;2022-11-20T06:50:28;23.37;;;6.37;;
34565;SDS011;20803;42.676;26.348;2022-11-20T06:52:54;19.80;;;7.10;;
34565;SDS011;20803;42.676;26.348;2022-11-20T06:55:19;18.47;;;5.53;;
34565;SDS011;20803;42.676;26.348;2022-11-20T06:57:45;19.67;;;6.93;;
34565;SDS011;20803;42.676;26.348;2022-11-20T07:00:10;16.20;;;7.03;;
34565;SDS011;20803;42.676;26.348;2022-11-20T07:02:36;12.67;;;4.73;;
34565;SDS011;20803;42.676;26.348;2022-11-20T07:05:02;18.40;;;4.57;;
34565;SDS011;20803;42.676;26.348;2022-11-20T07:07:27;13.67;;;5.13;;
34565;SDS011;20803;42.676;26.348;2022-11-20T07:09:53;19.03;;;5.67;;
34565;SDS011;20803;42.676;26.348;2022-11-20T07:12:18;17.20;;;5.20;;
34565;SDS011;20803;42.676;26.348;2022-11-20T07:14:43;22.97;;;6.40;;
34565;SDS011;20803;42.676;26.348;2022-11-20T07:17:09;20.80;;;6.90;;
34565;SDS011;20803;42.676;26.348;2022-11-20T07:19:34;23.83;;;7.00;;
34565;SDS011;20803;42.676;26.348;2022-11-20T07:22:00;13.10;;;4.77;;
34565;SDS011;20803;42.676;26.348;2022-11-20T07:24:25;21.03;;;7.20;;
34565;SDS011;20803;42.676;26.348;2022-11-20T07:26:51;20.10;;;7.97;;
34565;SDS011;20803;42.676;26.348;2022-11-20T07:29:16;18.00;;;6.90;;
34565;SDS011;20803;42.676;26.348;2022-11-20T07:31:42;24.33;;;10.90;;
34565;SDS011;20803;42.676;26.348;2022-11-20T07:34:07;18.13;;;7.63;;
34565;SDS011;20803;42.676;26.348;2022-11-20T07:36:33;15.03;;;4.20;;
34565;SDS011;20803;42.676;26.348;2022-11-20T07:38:59;8.73;;;4.30;;
34565;SDS011;20803;42.676;26.348;2022-11-20T07:41:24;11.03;;;4.47;;
34565;SDS011;20803;42.676;26.348;2022-11-20T07:43:49;12.70;;;4.17;;
34565;SDS011;20803;42.676;26.348;2022-11-20T07:46:15;18.43;;;5.60;;
34565;SDS011;20803;42.676;26.348;2022-11-20T07:48:40;13.43;;;4.93;;
34565;SDS011;20803;42.676;26.348;2022-11-20T07:51:06;12.37;;;4.47;;
34565;SDS011;20803;42.676;26.348;2022-11-20T07:53:31;12.07;;;4.43;;
34565;SDS011;20803;42.676;26.348;2022-11-20T07:56:00;13.23;;;5.70;;
34565;SDS011;20803;42.676;26.348;2022-11-20T07:58:26;16.73;;;5.17;;
34565;SDS011;20803;42.676;26.348;2022-11-20T08:00:53;15.73;;;5.63;;
34565;SDS011;20803;42.676;26.348;2022-11-20T08:03:18;13.50;;;4.57;;
34565;SDS011;20803;42.676;26.348;2022-11-20T08:05:44;15.27;;;4.57;;
34565;SDS011;20803;42.676;26.348;2022-11-20T08:08:10;13.17;;;5.07;;
34565;SDS011;20803;42.676;26.348;2022-11-20T08:10:35;20.03;;;5.83;;
34565;SDS011;20803;42.676;26.348;2022-11-20T08:13:00;18.77;;;5.70;;
34565;SDS011;20803;42.676;26.348;2022-11-20T08:15:47;15.50;;;5.30;;
34565;SDS011;20803;42.676;26.348;2022-11-20T08:18:15;17.87;;;6.10;;
34565;SDS011;20803;42.676;26.348;2022-11-20T08:20:41;17.10;;;5.67;;
34565;SDS011;20803;42.676;26.348;2022-11-20T08:23:06;15.07;;;5.80;;
34565;SDS011;20803;42.676;26.348;2022-11-20T08:25:33;22.37;;;6.00;;
34565;SDS011;20803;42.676;26.348;2022-11-20T08:28:00;26.30;;;10.23;;
34565;SDS011;20803;42.676;26.348;2022-11-20T08:30:27;23.53;;;11.80;;
34565;SDS011;20803;42.676;26.348;2022-11-20T08:32:54;24.30;;;13.70;;
34565;SDS011;20803;42.676;26.348;2022-11-20T08:35:22;24.60;;;11.20;;
34565;SDS011;20803;42.676;26.348;2022-11-20T08:37:48;28.40;;;8.73;;
34565;SDS011;20803;42.676;26.348;2022-11-20T08:40:14;20.90;;;7.57;;
34565;SDS011;20803;42.676;26.348;2022-11-20T08:42:49;17.27;;;5.03;;
34565;SDS011;20803;42.676;26.348;2022-11-20T08:45:16;16.63;;;5.00;;
34565;SDS011;20803;42.676;26.348;2022-11-20T08:47:43;14.30;;;5.37;;
34565;SDS011;20803;42.676;26.348;2022-11-20T08:50:10;11.47;;;4.80;;
34565;SDS011;20803;42.676;26.348;2022-11-20T08:52:36;13.53;;;4.37;;
34565;SDS011;20803;42.676;26.348;2022-11-20T08:55:03;11.83;;;4.90;;
34565;SDS011;20803;42.676;26.348;2022-11-20T08:57:31;15.40;;;4.87;;
34565;SDS011;20803;42.676;26.348;2022-11-20T09:00:00;15.40;;;4.40;;
34565;SDS011;20803;42.676;26.348;2022-11-20T09:02:26;18.60;;;4.93;;
34565;SDS011;20803;42.676;26.348;2022-11-20T09:04:51;16.10;;;4.50;;
34565;SDS011;20803;42.676;26.348;2022-11-20T09:07:18;16.93;;;4.50;;
34565;SDS011;20803;42.676;26.348;2022-11-20T09:09:44;19.77;;;5.17;;
34565;SDS011;20803;42.676;26.348;2022-11-20T09:12:09;19.20;;;5.30;;
34565;SDS011;20803;42.676;26.348;2022-11-20T09:14:35;18.20;;;5.30;;
34565;SDS011;20803;42.676;26.348;2022-11-20T09:17:00;16.90;;;5.67;;
34565;SDS011;20803;42.676;26.348;2022-11-20T09:19:26;17.10;;;6.50;;
34565;SDS011;20803;42.676;26.348;2022-11-20T09:21:51;18.07;;;4.80;;
34565;SDS011;20803;42.676;26.348;2022-11-20T09:24:17;15.53;;;5.30;;
34565;SDS011;20803;42.676;26.348;2022-11-20T09:26:43;18.53;;;7.30;;
34565;SDS011;20803;42.676;26.348;2022-11-20T09:29:09;19.97;;;7.27;;
34565;SDS011;20803;42.676;26.348;2022-11-20T09:31:34;15.37;;;6.50;;
34565;SDS011;20803;42.676;26.348;2022-11-20T09:34:00;21.63;;;5.47;;
34565;SDS011;20803;42.676;26.348;2022-11-20T09:36:25;15.30;;;5.93;;
34565;SDS011;20803;42.676;26.348;2022-11-20T09:38:51;15.10;;;4.90;;
34565;SDS011;20803;42.676;26.348;2022-11-20T09:44:20;21.83;;;4.87;;
34565;SDS011;20803;42.676;26.348;2022-11-20T09:53:20;16.40;;;5.60;;
34565;SDS011;20803;42.676;26.348;2022-11-20T09:55:49;17.87;;;5.30;;
34565;SDS011;20803;42.676;26.348;2022-11-20T09:58:20;15.80;;;6.53;;
34565;SDS011;20803;42.676;26.348;2022-11-20T10:00:56;29.30;;;6.23;;
34565;SDS011;20803;42.676;26.348;2022-11-20T10:06:21;15.30;;;6.20;;
34565;SDS011;20803;42.676;26.348;2022-11-20T10:09:15;14.37;;;6.07;;
34565;SDS011;20803;42.676;26.348;2022-11-20T10:15:00;18.50;;;7.53;;
34565;SDS011;20803;42.676;26.348;2022-11-20T10:20:27;16.13;;;5.80;;
34565;SDS011;20803;42.676;26.348;2022-11-20T10:25:44;19.90;;;6.03;;
34565;SDS011;20803;42.676;26.348;2022-11-20T10:31:02;20.90;;;6.20;;
34565;SDS011;20803;42.676;26.348;2022-11-20T10:33:35;17.37;;;5.20;;
34565;SDS011;20803;42.676;26.348;2022-11-20T10:36:08;22.83;;;5.90;;
34565;SDS011;20803;42.676;26.348;2022-11-20T10:38:55;20.30;;;6.03;;
34565;SDS011;20803;42.676;26.348;2022-11-20T10:41:30;20.97;;;7.00;;
34565;SDS011;20803;42.676;26.348;2022-11-20T10:44:17;18.20;;;5.80;;
34565;SDS011;20803;42.676;26.348;2022-11-20T10:47:18;20.43;;;6.77;;
34565;SDS011;20803;42.676;26.348;2022-11-20T10:49:51;18.80;;;6.70;;
34565;SDS011;20803;42.676;26.348;2022-11-20T10:57:53;19.67;;;5.10;;
34565;SDS011;20803;42.676;26.348;2022-11-20T11:00:25;15.63;;;5.43;;
34565;SDS011;20803;42.676;26.348;2022-11-20T11:02:51;14.33;;;5.30;;
34565;SDS011;20803;42.676;26.348;2022-11-20T11:08:16;28.37;;;8.47;;
34565;SDS011;20803;42.676;26.348;2022-11-20T11:15:49;24.83;;;8.23;;
34565;SDS011;20803;42.676;26.348;2022-11-20T11:21:08;19.80;;;8.37;;
34565;SDS011;20803;42.676;26.348;2022-11-20T11:23:35;28.83;;;8.67;;
34565;SDS011;20803;42.676;26.348;2022-11-20T11:26:06;25.00;;;7.57;;
34565;SDS011;20803;42.676;26.348;2022-11-20T11:28:52;32.20;;;7.83;;
34565;SDS011;20803;42.676;26.348;2022-11-20T11:31:22;24.27;;;9.80;;
34565;SDS011;20803;42.676;26.348;2022-11-20T11:33:51;22.07;;;7.63;;
34565;SDS011;20803;42.676;26.348;2022-11-20T11:36:21;36.50;;;8.30;;
34565;SDS011;20803;42.676;26.348;2022-11-20T11:38:50;25.87;;;8.47;;
34565;SDS011;20803;42.676;26.348;2022-11-20T11:41:20;27.50;;;8.70;;
34565;SDS011;20803;42.676;26.348;2022-11-20T11:43:56;35.00;;;9.53;;
34565;SDS011;20803;42.676;26.348;2022-11-20T11:46:52;22.57;;;7.00;;
34565;SDS011;20803;42.676;26.348;2022-11-20T11:49:19;35.83;;;11.93;;
34565;SDS011;20803;42.676;26.348;2022-11-20T11:57:16;21.40;;;6.30;;
34565;SDS011;20803;42.676;26.348;2022-11-20T12:00:00;15.93;;;5.97;;
34565;SDS011;20803;42.676;26.348;2022-11-20T12:04:57;29.70;;;8.50;;
34565;SDS011;20803;42.676;26.348;2022-11-20T12:07:41;26.40;;;7.00;;
34565;SDS011;20803;42.676;26.348;2022-11-20T12:10:14;31.87;;;10.13;;
34565;SDS011;20803;42.676;26.348;2022-11-20T12:12:49;25.77;;;7.73;;
34565;SDS011;20803;42.676;26.348;2022-11-20T12:15:26;22.67;;;6.27;;
34565;SDS011;20803;42.676;26.348;2022-11-20T12:17:55;23.20;;;4.93;;
34565;SDS011;20803;42.676;26.348;2022-11-20T12:20:21;23.40;;;6.53;;
34565;SDS011;20803;42.676;26.348;2022-11-20T12:22:58;17.07;;;5.33;;
34565;SDS011;20803;42.676;26.348;2022-11-20T12:25:32;22.43;;;6.50;;
34565;SDS011;20803;42.676;26.348;2022-11-20T12:30:42;26.77;;;6.37;;
34565;SDS011;20803;42.676;26.348;2022-11-20T12:33:33;20.43;;;6.10;;
34565;SDS011;20803;42.676;26.348;2022-11-20T12:41:24;26.03;;;6.73;;
34565;SDS011;20803;42.676;26.348;2022-11-20T12:53:10;27.90;;;6.77;;
34565;SDS011;20803;42.676;26.348;2022-11-20T13:01:12;26.60;;;7.07;;
34565;SDS011;20803;42.676;26.348;2022-11-20T13:06:38;22.00;;;6.37;;
34565;SDS011;20803;42.676;26.348;2022-11-20T13:09:07;26.77;;;5.97;;
34565;SDS011;20803;42.676;26.348;2022-11-20T13:17:14;22.33;;;5.70;;
34565;SDS011;20803;42.676;26.348;2022-11-20T13:19:50;25.17;;;7.37;;
34565;SDS011;20803;42.676;26.348;2022-11-20T13:22:28;30.03;;;7.77;;
34565;SDS011;20803;42.676;26.348;2022-11-20T13:25:21;22.50;;;6.47;;
34565;SDS011;20803;42.676;26.348;2022-11-20T13:27:58;26.23;;;6.97;;
34565;SDS011;20803;42.676;26.348;2022-11-20T13:30:26;27.57;;;6.07;;
34565;SDS011;20803;42.676;26.348;2022-11-20T13:32:57;23.93;;;5.63;;
34565;SDS011;20803;42.676;26.348;2022-11-20T13:35:35;23.27;;;6.23;;
34565;SDS011;20803;42.676;26.348;2022-11-20T13:40:57;31.03;;;7.80;;
34565;SDS011;20803;42.676;26.348;2022-11-20T13:43:44;22.40;;;6.63;;
34565;SDS011;20803;42.676;26.348;2022-11-20T13:46:12;28.67;;;7.43;;
34565;SDS011;20803;42.676;26.348;2022-11-20T13:48:39;33.87;;;7.80;;
34565;SDS011;20803;42.676;26.348;2022-11-20T13:53:47;28.80;;;7.17;;
34565;SDS011;20803;42.676;26.348;2022-11-20T14:01:52;32.60;;;7.97;;
34565;SDS011;20803;42.676;26.348;2022-11-20T14:04:21;39.17;;;7.40;;
34565;SDS011;20803;42.676;26.348;2022-11-20T14:07:00;32.50;;;7.97;;
34565;SDS011;20803;42.676;26.348;2022-11-20T14:09:26;30.07;;;9.03;;
34565;SDS011;20803;42.676;26.348;2022-11-20T14:11:53;31.27;;;7.57;;
34565;SDS011;20803;42.676;26.348;2022-11-20T14:14:20;33.03;;;7.43;;
34565;SDS011;20803;42.676;26.348;2022-11-20T14:17:03;32.83;;;8.20;;
34565;SDS011;20803;42.676;26.348;2022-11-20T14:19:33;32.53;;;11.77;;
34565;SDS011;20803;42.676;26.348;2022-11-20T14:22:17;32.83;;;11.33;;
34565;SDS011;20803;42.676;26.348;2022-11-20T14:24:45;33.57;;;9.73;;
34565;SDS011;20803;42.676;26.348;2022-11-20T14:27:18;36.33;;;9.60;;
34565;SDS011;20803;42.676;26.348;2022-11-20T14:29:46;35.73;;;9.37;;
34565;SDS011;20803;42.676;26.348;2022-11-20T14:32:14;35.60;;;9.43;;
34565;SDS011;20803;42.676;26.348;2022-11-20T14:34:43;38.77;;;9.87;;
34565;SDS011;20803;42.676;26.348;2022-11-20T14:37:11;36.70;;;11.37;;
34565;SDS011;20803;42.676;26.348;2022-11-20T14:39:42;52.17;;;10.83;;
34565;SDS011;20803;42.676;26.348;2022-11-20T14:42:16;42.33;;;10.33;;
34565;SDS011;20803;42.676;26.348;2022-11-20T14:44:44;49.70;;;10.30;;
34565;SDS011;20803;42.676;26.348;2022-11-20T14:47:15;40.53;;;9.90;;
34565;SDS011;20803;42.676;26.348;2022-11-20T14:49:45;35.43;;;9.53;;
34565;SDS011;20803;42.676;26.348;2022-11-20T14:54:44;32.80;;;8.53;;
34565;SDS011;20803;42.676;26.348;2022-11-20T14:57:23;32.07;;;9.07;;
34565;SDS011;20803;42.676;26.348;2022-11-20T15:00:07;30.13;;;9.27;;
34565;SDS011;20803;42.676;26.348;2022-11-20T15:02:40;38.87;;;8.70;;
34565;SDS011;20803;42.676;26.348;2022-11-20T15:05:06;41.70;;;9.77;;
34565;SDS011;20803;42.676;26.348;2022-11-20T15:07:33;35.83;;;9.03;;
34565;SDS011;20803;42.676;26.348;2022-11-20T15:12:37;39.97;;;8.80;;
34565;SDS011;20803;42.676;26.348;2022-11-20T15:15:06;36.57;;;9.30;;
34565;SDS011;20803;42.676;26.348;2022-11-20T15:17:37;33.80;;;10.10;;
34565;SDS011;20803;42.676;26.348;2022-11-20T15:20:05;35.63;;;7.87;;
34565;SDS011;20803;42.676;26.348;2022-11-20T15:22:37;35.73;;;7.93;;
34565;SDS011;20803;42.676;26.348;2022-11-20T15:25:05;33.77;;;7.73;;
34565;SDS011;20803;42.676;26.348;2022-11-20T15:27:36;28.20;;;6.80;;
34565;SDS011;20803;42.676;26.348;2022-11-20T15:30:02;31.40;;;7.30;;
34565;SDS011;20803;42.676;26.348;2022-11-20T15:32:36;31.30;;;6.60;;
34565;SDS011;20803;42.676;26.348;2022-11-20T15:35:02;34.23;;;7.83;;
34565;SDS011;20803;42.676;26.348;2022-11-20T15:37:27;34.97;;;7.70;;
34565;SDS011;20803;42.676;26.348;2022-11-20T15:39:53;41.23;;;7.53;;
34565;SDS011;20803;42.676;26.348;2022-11-20T15:42:18;33.60;;;8.27;;
34565;SDS011;20803;42.676;26.348;2022-11-20T15:44:43;35.20;;;8.43;;
34565;SDS011;20803;42.676;26.348;2022-11-20T15:47:09;34.77;;;6.90;;
34565;SDS011;20803;42.676;26.348;2022-11-20T15:49:35;38.27;;;8.93;;
34565;SDS011;20803;42.676;26.348;2022-11-20T15:52:01;36.07;;;7.57;;
34565;SDS011;20803;42.676;26.348;2022-11-20T15:54:26;28.00;;;7.57;;
34565;SDS011;20803;42.676;26.348;2022-11-20T15:56:51;34.43;;;7.73;;
34565;SDS011;20803;42.676;26.348;2022-11-20T15:59:17;32.73;;;7.27;;
34565;SDS011;20803;42.676;26.348;2022-11-20T16:01:43;27.33;;;7.30;;
34565;SDS011;20803;42.676;26.348;2022-11-20T16:04:12;28.50;;;7.03;;
34565;SDS011;20803;42.676;26.348;2022-11-20T16:06:39;28.50;;;7.43;;
34565;SDS011;20803;42.676;26.348;2022-11-20T16:09:05;27.13;;;7.23;;
34565;SDS011;20803;42.676;26.348;2022-11-20T16:11:31;33.10;;;8.33;;
34565;SDS011;20803;42.676;26.348;2022-11-20T16:13:56;30.93;;;7.50;;
34565;SDS011;20803;42.676;26.348;2022-11-20T16:16:40;48.93;;;9.77;;